Accueil
METAR-TAF:

METAR-TAF

Aéroports :

Mönchengladbach, Allemagne

latitude: 51-13-49N, longitude: 006-30-16E, altitude: 38 m

Observation

Le bulletin a été fait il y a 24 minutes, à 07:20 UTC
Vent 7 kt de sud-est, variant entre est/sud-est et sud
Température 27°C
Humidité 54%
Pression 1015 hPa
Visibilité 10 km ou plus
pas de nuages en-dessous de 1500 mètres et pas de cumulonimbus.

METAR: EDLN 110720Z 13007KT 110V170 CAVOK 27/17 Q1015

Heure: 09:44 (07:44 UTC)

Prévision

Le bulletin a été fait il y a 1 heure et 24 minutes, à 06:20 UTC
Prévision valable du 11 à 07 UTC au 11 à 15 UTC
Vent 5 kt de est
Visibilité 10 km ou plus
pas de nuages en-dessous de 1500 mètres et pas de cumulonimbus.
Temporairement
du 11 à 11 UTC au 11 à 15 UTC
Vent 15 kt de sud-est avec des rafales jusqu'à 35 kt
Nuages épars à une hauteur de 5000 ft, Cumulonimbus.
orage, pluie

TAF: EDLN 110620Z 1107/1115 09005KT CAVOK TEMPO 1111/1115 14015G35KT TSRA SCT050CB

Observations et prévisions météorologiques de plus de 4000 aéroports (messages METAR et TAF).

Les stations disponibles sont représentées par des disques jaunes et rouges sur la carte.

Passer la souris dessus pour voir le nom de la station.

Cliquer dessus pour voir les observations et prévisions météorologiques.

Pour changer de carte: cliquez sur les boutons verts avec une croix noire pour zoomer, sur le bouton vert avec un tiret pour effectuer un zoom arrière, ou sur les flèches vertes pour les cartes adjacentes.


METAR-TAF: